createdAt,value
2019-05-14T00:00:48.545Z,0
2019-05-14T00:01:51.375Z,0
2019-05-14T00:02:48.491Z,0
2019-05-14T00:03:48.470Z,0
2019-05-14T00:04:51.163Z,0
2019-05-14T00:05:51.460Z,0
2019-05-14T00:06:48.962Z,0
2019-05-14T00:07:48.597Z,0
2019-05-14T00:08:49.023Z,0
2019-05-14T00:09:48.383Z,0
2019-05-14T00:10:48.325Z,0
2019-05-14T00:11:51.202Z,0
2019-05-14T00:12:51.069Z,0
2019-05-14T00:13:48.415Z,0
2019-05-14T00:14:51.579Z,0
2019-05-14T00:15:48.592Z,0
2019-05-14T00:16:51.153Z,0
2019-05-14T00:17:48.834Z,0
2019-05-14T00:18:51.031Z,0
2019-05-14T00:20:02.646Z,0
2019-05-14T00:20:51.027Z,0
2019-05-14T00:21:51.296Z,0
2019-05-14T00:22:48.862Z,0
2019-05-14T00:23:50.990Z,0
2019-05-14T00:24:48.858Z,0
2019-05-14T00:25:49.018Z,0
2019-05-14T00:26:51.537Z,0
2019-05-14T00:27:48.348Z,0
2019-05-14T00:28:51.183Z,0
2019-05-14T00:29:48.747Z,0
2019-05-14T00:30:49.264Z,0
2019-05-14T00:31:51.505Z,0
2019-05-14T00:32:48.660Z,0
2019-05-14T00:33:51.080Z,0
2019-05-14T00:34:51.523Z,0
2019-05-14T00:35:48.510Z,0
2019-05-14T00:36:48.859Z,0
2019-05-14T00:37:48.619Z,0
2019-05-14T00:38:51.180Z,0
2019-05-14T00:39:48.786Z,0
2019-05-14T00:40:51.159Z,0
2019-05-14T00:41:51.190Z,0
2019-05-14T00:42:48.651Z,0
2019-05-14T00:43:48.752Z,0
2019-05-14T00:45:03.621Z,0
2019-05-14T00:45:51.014Z,0
2019-05-14T00:46:48.245Z,0
2019-05-14T00:47:48.984Z,0
2019-05-14T00:48:51.232Z,0
2019-05-14T00:49:51.489Z,0
2019-05-14T00:50:51.406Z,0
2019-05-14T00:51:48.453Z,0
2019-05-14T00:52:51.726Z,0
2019-05-14T00:53:51.362Z,0
2019-05-14T00:54:48.881Z,0
2019-05-14T00:55:51.332Z,0
2019-05-14T00:56:48.865Z,0
2019-05-14T00:57:51.501Z,0
2019-05-14T00:58:48.622Z,0
2019-05-14T00:59:48.513Z,0
2019-05-14T01:00:48.949Z,0
2019-05-14T01:01:47.414Z,0
2019-05-14T01:02:48.792Z,0
2019-05-14T01:03:48.668Z,0
2019-05-14T01:04:51.534Z,0
2019-05-14T01:05:48.533Z,0
2019-05-14T01:06:51.101Z,0
2019-05-14T01:07:47.178Z,0
2019-05-14T01:08:48.547Z,0
2019-05-14T01:09:49.047Z,0
2019-05-14T01:10:48.556Z,0
2019-05-14T01:11:51.106Z,0
2019-05-14T01:12:48.576Z,0
2019-05-14T01:13:48.596Z,0
2019-05-14T01:14:47.346Z,0
2019-05-14T01:15:48.652Z,0
2019-05-14T01:16:47.252Z,0
2019-05-14T01:17:46.758Z,0
2019-05-14T01:18:48.602Z,0
2019-05-14T01:19:51.284Z,0
2019-05-14T01:20:48.388Z,0
2019-05-14T01:21:50.897Z,0
2019-05-14T01:22:47.101Z,0
2019-05-14T01:23:48.320Z,0
2019-05-14T01:24:48.700Z,0
2019-05-14T01:25:47.002Z,0
2019-05-14T01:26:48.651Z,0
2019-05-14T01:27:48.572Z,0
2019-05-14T01:28:48.627Z,0
2019-05-14T01:29:47.326Z,0
2019-05-14T01:30:48.266Z,0
2019-05-14T01:31:48.755Z,0
2019-05-14T01:32:51.081Z,0
2019-05-14T01:33:47.936Z,0
2019-05-14T01:34:48.951Z,0
2019-05-14T01:35:46.624Z,0
2019-05-14T01:36:48.403Z,0
2019-05-14T01:37:48.629Z,0
2019-05-14T01:38:46.776Z,0
2019-05-14T01:39:48.784Z,0
2019-05-14T01:40:48.947Z,0
2019-05-14T01:41:47.179Z,0
2019-05-14T01:42:48.584Z,0
2019-05-14T01:43:46.563Z,0
2019-05-14T01:44:48.401Z,0
2019-05-14T01:45:48.725Z,0
2019-05-14T01:46:46.868Z,0
2019-05-14T01:47:48.472Z,0
2019-05-14T01:48:46.602Z,0
2019-05-14T01:49:47.581Z,0
2019-05-14T01:50:48.469Z,0
2019-05-14T01:51:47.060Z,0
2019-05-14T01:52:48.520Z,0
2019-05-14T01:53:46.531Z,0
2019-05-14T01:54:47.532Z,0
2019-05-14T01:55:48.259Z,0
2019-05-14T01:56:47.162Z,0
2019-05-14T01:57:47.287Z,0
2019-05-14T01:58:46.555Z,0
2019-05-14T01:59:47.684Z,0
2019-05-14T02:00:46.423Z,0
2019-05-14T02:01:48.285Z,0
2019-05-14T02:02:46.684Z,0
2019-05-14T02:03:48.139Z,0
2019-05-14T02:04:47.580Z,0
2019-05-14T02:05:46.223Z,0
2019-05-14T02:06:48.263Z,0
2019-05-14T02:07:46.810Z,0
2019-05-14T02:08:48.455Z,0
2019-05-14T02:09:46.854Z,0
2019-05-14T02:10:46.780Z,0
2019-05-14T02:11:46.473Z,0
2019-05-14T02:12:47.216Z,0
2019-05-14T02:13:48.407Z,0
2019-05-14T02:14:47.317Z,0
2019-05-14T02:15:51.780Z,0
2019-05-14T02:16:47.088Z,0
2019-05-14T02:17:48.409Z,0
2019-05-14T02:18:46.446Z,0
2019-05-14T02:19:47.401Z,0
2019-05-14T02:20:46.262Z,0
2019-05-14T02:21:47.352Z,0
2019-05-14T02:22:46.511Z,0
2019-05-14T02:23:46.856Z,0
2019-05-14T02:24:46.608Z,0
2019-05-14T02:25:46.109Z,0
2019-05-14T02:26:47.021Z,0
2019-05-14T02:27:46.189Z,4
2019-05-14T02:28:46.881Z,4
2019-05-14T02:29:46.426Z,4
2019-05-14T02:31:09.333Z,0
2019-05-14T02:31:50.125Z,4
2019-05-14T02:32:49.722Z,4
2019-05-14T02:33:50.001Z,4
2019-05-14T02:34:49.588Z,4
2019-05-14T02:35:49.315Z,4
2019-05-14T02:36:49.602Z,8
2019-05-14T02:37:50.051Z,8
2019-05-14T02:38:45.860Z,4
2019-05-14T02:39:50.111Z,8
2019-05-14T02:40:49.361Z,12
2019-05-14T02:41:49.613Z,12
2019-05-14T02:42:49.688Z,16
2019-05-14T02:43:50.183Z,16
2019-05-14T02:44:51.275Z,16
2019-05-14T02:46:21.832Z,20
2019-05-14T02:46:50.399Z,24
2019-05-14T02:47:49.363Z,24
2019-05-14T02:48:49.080Z,28
2019-05-14T02:49:49.787Z,32
2019-05-14T02:50:49.339Z,36
2019-05-14T02:51:50.011Z,44
2019-05-14T02:52:49.557Z,48
2019-05-14T02:53:49.546Z,56
2019-05-14T02:54:49.473Z,60
2019-05-14T02:55:46.225Z,72
2019-05-14T02:56:49.493Z,80
2019-05-14T02:57:49.789Z,84
2019-05-14T02:58:49.849Z,100
2019-05-14T02:59:49.817Z,108
2019-05-14T03:00:49.125Z,124
2019-05-14T03:01:50.194Z,136
2019-05-14T03:02:49.354Z,152
2019-05-14T03:03:49.483Z,168
2019-05-14T03:04:49.540Z,184
2019-05-14T03:05:49.486Z,200
2019-05-14T03:06:46.471Z,220
2019-05-14T03:07:49.018Z,244
2019-05-14T03:08:49.179Z,264
2019-05-14T03:09:50.058Z,288
2019-05-14T03:10:50.127Z,312
2019-05-14T03:11:48.475Z,340
2019-05-14T03:12:49.182Z,368
2019-05-14T03:13:49.432Z,396
2019-05-14T03:14:49.670Z,428
2019-05-14T03:15:49.448Z,456
2019-05-14T03:16:49.445Z,492
2019-05-14T03:17:49.350Z,528
2019-05-14T03:18:49.878Z,564
2019-05-14T03:19:49.538Z,600
2019-05-14T03:20:49.746Z,640
2019-05-14T03:21:49.816Z,684
2019-05-14T03:23:19.488Z,748
2019-05-14T03:23:49.349Z,768
2019-05-14T03:24:49.972Z,816
2019-05-14T03:25:49.241Z,864
2019-05-14T03:26:49.898Z,912
2019-05-14T03:27:49.584Z,960
2019-05-14T03:28:49.566Z,1012
2019-05-14T03:29:49.841Z,1068
2019-05-14T03:30:54.802Z,1120
2019-05-14T03:31:55.633Z,1172
2019-05-14T03:32:55.281Z,1228
2019-05-14T03:34:01.976Z,1280
2019-05-14T03:34:56.163Z,1332
2019-05-14T03:36:17.571Z,1404
2019-05-14T03:36:55.490Z,1444
2019-05-14T03:37:49.190Z,1488
2019-05-14T03:38:49.941Z,1548
2019-05-14T03:39:49.318Z,1608
2019-05-14T03:40:49.358Z,1664
2019-05-14T03:41:49.603Z,1724
2019-05-14T03:42:48.972Z,1792
2019-05-14T03:43:49.138Z,1872
2019-05-14T03:44:48.959Z,1968
2019-05-14T03:45:49.250Z,2040
2019-05-14T03:47:10.059Z,2116
2019-05-14T03:47:50.092Z,2168
2019-05-14T03:48:49.217Z,2324
2019-05-14T03:49:49.676Z,2648
2019-05-14T03:50:49.216Z,3060
2019-05-14T03:51:49.419Z,3484
2019-05-14T03:52:49.779Z,3720
2019-05-14T03:54:15.323Z,3872
2019-05-14T03:54:49.616Z,3916
2019-05-14T03:55:50.258Z,3996
2019-05-14T03:56:49.304Z,4152
2019-05-14T03:57:49.897Z,4396
2019-05-14T03:58:49.222Z,4532
2019-05-14T03:59:49.796Z,4668
2019-05-14T04:00:49.419Z,4828
2019-05-14T04:01:50.678Z,5012
2019-05-14T04:02:48.948Z,5292
2019-05-14T04:03:49.941Z,5404
2019-05-14T04:04:49.661Z,5712
2019-05-14T04:05:49.172Z,5736
2019-05-14T04:06:49.599Z,5832
2019-05-14T04:07:49.723Z,5748
2019-05-14T04:08:49.386Z,5324
2019-05-14T04:09:49.291Z,5580
2019-05-14T04:11:01.439Z,5860
2019-05-14T04:11:50.038Z,6024
2019-05-14T04:12:49.103Z,6032
2019-05-14T04:13:49.602Z,6220
2019-05-14T04:14:49.857Z,6492
2019-05-14T04:15:49.291Z,6632
2019-05-14T04:17:15.292Z,6996
2019-05-14T04:17:52.458Z,6940
2019-05-14T04:18:50.344Z,6896
2019-05-14T04:19:49.483Z,7024
2019-05-14T04:20:49.634Z,6984
2019-05-14T04:21:48.996Z,7064
2019-05-14T04:22:49.634Z,7184
2019-05-14T04:23:50.274Z,7544
2019-05-14T04:24:51.946Z,7868
2019-05-14T04:25:49.548Z,8244
2019-05-14T04:27:15.488Z,8564
2019-05-14T04:27:49.375Z,8660
2019-05-14T04:28:49.387Z,9024
2019-05-14T04:29:49.590Z,9384
2019-05-14T04:31:04.314Z,9584
2019-05-14T04:31:49.843Z,9672
2019-05-14T04:32:50.097Z,10416
2019-05-14T04:33:49.528Z,10852
2019-05-14T04:34:49.499Z,9804
2019-05-14T04:35:48.986Z,10636
2019-05-14T04:36:49.786Z,11744
2019-05-14T04:37:49.534Z,9716
2019-05-14T04:38:55.133Z,11644
2019-05-14T04:39:49.907Z,12364
2019-05-14T04:40:49.334Z,12000
2019-05-14T04:41:49.420Z,14304
2019-05-14T04:42:49.867Z,13840
2019-05-14T04:43:49.933Z,13440
2019-05-14T04:44:50.180Z,13920
2019-05-14T04:45:49.609Z,14496
2019-05-14T04:46:49.287Z,14112
2019-05-14T04:48:00.061Z,14496
2019-05-14T04:48:53.393Z,14816
2019-05-14T04:49:50.080Z,15648
2019-05-14T04:50:49.672Z,16512
2019-05-14T04:51:49.805Z,16640
2019-05-14T04:52:49.309Z,16544
2019-05-14T04:53:49.779Z,16480
2019-05-14T04:54:49.462Z,16448
2019-05-14T04:55:49.401Z,16640
2019-05-14T04:56:50.630Z,18240
2019-05-14T04:57:49.687Z,18720
2019-05-14T04:58:49.574Z,17760
2019-05-14T04:59:49.340Z,18784
2019-05-14T05:00:49.551Z,20160
2019-05-14T05:01:49.260Z,15328
2019-05-14T05:02:49.678Z,12816
2019-05-14T05:03:50.223Z,7792
2019-05-14T05:04:52.765Z,10456
2019-05-14T05:05:49.590Z,10076
2019-05-14T05:06:49.519Z,9048
2019-05-14T05:07:49.149Z,8848
2019-05-14T05:08:49.386Z,10652
2019-05-14T05:09:49.779Z,10288
2019-05-14T05:10:49.396Z,10616
2019-05-14T05:11:49.404Z,9168
2019-05-14T05:12:45.967Z,7304
2019-05-14T05:13:48.692Z,7996
2019-05-14T05:14:48.980Z,11560
2019-05-14T05:15:48.628Z,16000
2019-05-14T05:16:48.726Z,11100
2019-05-14T05:17:58.884Z,27328
2019-05-14T05:18:48.979Z,25760
2019-05-14T05:19:54.148Z,23232
2019-05-14T05:20:50.037Z,15168
2019-05-14T05:21:47.905Z,12096
2019-05-14T05:22:48.504Z,13644
2019-05-14T05:23:45.928Z,16288
2019-05-14T05:24:45.265Z,16896
2019-05-14T05:25:45.585Z,16128
2019-05-14T05:26:48.308Z,14524
2019-05-14T05:27:45.372Z,11552
2019-05-14T05:29:06.781Z,10812
2019-05-14T05:29:48.480Z,10464
2019-05-14T05:30:45.739Z,12632
2019-05-14T05:31:45.351Z,17696
2019-05-14T05:32:45.886Z,18240
2019-05-14T05:33:45.487Z,15456
2019-05-14T05:34:48.011Z,17920
2019-05-14T05:35:50.960Z,35136
2019-05-14T05:36:45.231Z,33600
2019-05-14T05:37:45.663Z,31904
2019-05-14T05:38:48.600Z,29728
2019-05-14T05:39:45.801Z,26784
2019-05-14T05:40:48.493Z,29632
2019-05-14T05:41:45.652Z,33504
2019-05-14T05:42:45.829Z,32704
2019-05-14T05:43:48.355Z,30752
2019-05-14T05:44:48.306Z,20896
2019-05-14T05:45:45.251Z,36032
2019-05-14T05:46:49.320Z,32000
2019-05-14T05:48:04.257Z,19136
2019-05-14T05:48:48.145Z,37664
2019-05-14T05:49:45.372Z,34016
2019-05-14T05:50:48.421Z,35072
2019-05-14T05:51:48.322Z,37152
2019-05-14T05:52:45.918Z,36256
2019-05-14T05:53:48.304Z,36256
2019-05-14T05:54:45.666Z,32224
2019-05-14T05:55:48.417Z,36640
2019-05-14T05:56:48.016Z,42240
2019-05-14T05:57:46.278Z,39520
2019-05-14T05:58:48.794Z,34144
2019-05-14T05:59:48.409Z,35584
2019-05-14T06:00:49.507Z,36928
2019-05-14T06:01:58.608Z,38240
2019-05-14T06:02:48.878Z,38720
2019-05-14T06:03:46.305Z,37536
2019-05-14T06:04:48.029Z,38144
2019-05-14T06:05:48.985Z,39328
2019-05-14T06:06:48.184Z,41600
2019-05-14T06:07:48.216Z,31712
2019-05-14T06:08:45.958Z,19136
2019-05-14T06:09:45.328Z,34432
2019-05-14T06:10:48.926Z,25856
2019-05-14T06:11:45.337Z,13236
2019-05-14T06:12:46.079Z,12480
2019-05-14T06:13:48.280Z,12912
2019-05-14T06:14:45.481Z,11920
2019-05-14T06:15:59.054Z,11652
2019-05-14T06:16:45.638Z,10936
2019-05-14T06:17:49.016Z,11364
2019-05-14T06:18:48.295Z,13784
2019-05-14T06:19:45.387Z,16736
2019-05-14T06:20:45.966Z,33664
2019-05-14T06:21:48.928Z,34400
2019-05-14T06:22:45.667Z,20320
2019-05-14T06:23:45.844Z,19744
2019-05-14T06:24:48.330Z,21056
2019-05-14T06:25:49.068Z,22240
2019-05-14T06:26:45.602Z,25792
2019-05-14T06:27:45.195Z,14116
2019-05-14T06:28:48.686Z,13056
2019-05-14T06:29:45.400Z,14680
2019-05-14T06:30:48.353Z,14792
2019-05-14T06:31:45.893Z,17888
2019-05-14T06:32:45.828Z,19776
2019-05-14T06:33:48.584Z,23904
2019-05-14T06:34:45.215Z,21760
2019-05-14T06:35:48.515Z,20256
2019-05-14T06:36:48.520Z,27840
2019-05-14T06:37:45.735Z,18560
2019-05-14T06:38:46.054Z,19008
2019-05-14T06:39:48.365Z,18496
2019-05-14T06:40:48.748Z,17248
2019-05-14T06:41:51.493Z,17600
2019-05-14T06:42:48.528Z,16384
2019-05-14T06:43:48.513Z,15616
2019-05-14T06:44:45.724Z,16928
2019-05-14T06:45:46.789Z,16928
2019-05-14T06:46:48.418Z,19776
2019-05-14T06:47:45.438Z,24192
2019-05-14T06:48:48.531Z,38080
2019-05-14T06:49:45.745Z,22240
2019-05-14T06:50:46.212Z,20320
2019-05-14T06:51:48.825Z,17568
2019-05-14T06:52:45.955Z,16640
2019-05-14T06:53:46.229Z,15936
2019-05-14T06:54:45.902Z,14644
2019-05-14T06:55:48.303Z,14708
2019-05-14T06:56:45.771Z,14264
2019-05-14T06:57:48.005Z,15968
2019-05-14T06:58:45.972Z,17984
2019-05-14T06:59:45.226Z,19488
2019-05-14T07:00:46.526Z,22240
2019-05-14T07:01:45.582Z,24544
2019-05-14T07:02:51.598Z,21984
2019-05-14T07:03:45.451Z,21984
2019-05-14T07:04:44.333Z,28640
2019-05-14T07:05:46.224Z,90240
2019-05-14T07:06:48.362Z,75904
2019-05-14T07:07:49.248Z,86944
2019-05-14T07:08:48.321Z,60544
2019-05-14T07:09:45.620Z,35456
2019-05-14T07:10:48.504Z,72800
2019-05-14T07:11:46.022Z,25344
2019-05-14T07:12:45.909Z,23648
2019-05-14T07:13:45.768Z,30432
2019-05-14T07:14:47.966Z,24128
2019-05-14T07:15:45.814Z,56992
2019-05-14T07:16:48.275Z,81568
2019-05-14T07:17:45.611Z,82976
2019-05-14T07:19:01.342Z,79840
2019-05-14T07:19:45.684Z,72544
2019-05-14T07:20:48.090Z,76480
2019-05-14T07:21:44.851Z,67392
2019-05-14T07:22:48.155Z,65600
2019-05-14T07:23:45.643Z,79040
2019-05-14T07:24:49.587Z,71040
2019-05-14T07:25:48.268Z,73760
2019-05-14T07:26:46.010Z,28128
2019-05-14T07:27:46.225Z,49472
2019-05-14T07:28:51.310Z,64224
2019-05-14T07:29:45.968Z,31616
2019-05-14T07:30:48.478Z,54944
2019-05-14T07:31:45.674Z,63840
2019-05-14T07:32:48.392Z,56832
2019-05-14T07:33:46.043Z,30208
2019-05-14T07:34:48.007Z,59008
2019-05-14T07:35:45.389Z,66560
2019-05-14T07:36:45.859Z,76864
2019-05-14T07:37:48.676Z,84544
2019-05-14T07:38:48.878Z,89824
2019-05-14T07:39:45.741Z,26720
2019-05-14T07:40:49.164Z,29504
2019-05-14T07:41:48.256Z,74784
2019-05-14T07:42:45.558Z,29184
2019-05-14T07:43:48.283Z,28608
2019-05-14T07:44:48.285Z,31424
2019-05-14T07:45:45.769Z,63008
2019-05-14T07:46:48.140Z,86336
2019-05-14T07:47:46.024Z,23328
2019-05-14T07:49:00.427Z,22432
2019-05-14T07:49:45.492Z,25408
2019-05-14T07:50:52.149Z,33408
2019-05-14T07:51:47.967Z,80992
2019-05-14T07:52:54.535Z,40224
2019-05-14T07:53:51.317Z,100480
2019-05-14T07:54:48.002Z,31136
2019-05-14T07:55:45.693Z,32640
2019-05-14T07:56:45.629Z,101312
2019-05-14T07:57:48.052Z,109856
2019-05-14T07:58:45.874Z,55872
2019-05-14T07:59:45.295Z,30432
2019-05-14T08:00:45.269Z,39264
2019-05-14T08:01:45.871Z,30976
2019-05-14T08:02:45.196Z,22848
2019-05-14T08:03:45.479Z,25408
2019-05-14T08:04:44.422Z,57184
2019-05-14T08:05:48.113Z,18592
2019-05-14T08:06:48.577Z,15112
2019-05-14T08:07:47.938Z,14696
2019-05-14T08:08:45.798Z,15776
2019-05-14T08:09:47.943Z,17344
2019-05-14T08:10:48.460Z,18432
2019-05-14T08:11:47.957Z,17504
2019-05-14T08:12:48.310Z,16832
2019-05-14T08:13:49.278Z,17152
2019-05-14T08:15:24.333Z,32992
2019-05-14T08:15:45.855Z,95296
2019-05-14T08:16:45.339Z,37088
2019-05-14T08:17:48.002Z,22656
2019-05-14T08:18:48.658Z,17536
2019-05-14T08:19:45.564Z,17920
2019-05-14T08:20:45.147Z,17568
2019-05-14T08:21:48.079Z,17056
2019-05-14T08:22:45.509Z,17504
2019-05-14T08:23:48.058Z,20352
2019-05-14T08:24:45.135Z,19936
2019-05-14T08:25:47.894Z,17536
2019-05-14T08:26:48.644Z,16480
2019-05-14T08:27:47.996Z,18688
2019-05-14T08:28:45.408Z,17632
2019-05-14T08:29:48.596Z,19936
2019-05-14T08:30:45.927Z,32640
2019-05-14T08:31:45.501Z,17376
2019-05-14T08:32:46.100Z,18592
2019-05-14T08:33:44.554Z,22048
2019-05-14T08:34:47.812Z,23200
2019-05-14T08:35:44.344Z,30752
2019-05-14T08:36:45.150Z,29216
2019-05-14T08:37:45.901Z,28512
2019-05-14T08:38:49.928Z,40672
2019-05-14T08:39:48.514Z,51328
2019-05-14T08:40:45.383Z,29088
2019-05-14T08:41:55.653Z,23840
2019-05-14T08:42:45.491Z,19936
2019-05-14T08:43:48.865Z,18784
2019-05-14T08:44:48.590Z,20832
2019-05-14T08:45:48.673Z,19712
2019-05-14T08:46:48.597Z,19040
2019-05-14T08:47:48.092Z,20288
2019-05-14T08:48:45.806Z,14764
2019-05-14T08:49:55.179Z,17504
2019-05-14T08:50:47.926Z,18208
2019-05-14T08:51:45.992Z,15776
2019-05-14T08:52:48.285Z,18528
2019-05-14T08:53:45.794Z,15808
2019-05-14T08:54:45.897Z,13196
2019-05-14T08:55:45.343Z,9888
2019-05-14T08:58:45.693Z,7532
2019-05-14T08:59:48.542Z,8716
2019-05-14T09:00:48.053Z,9856
2019-05-14T09:02:10.539Z,12520
2019-05-14T09:02:44.087Z,14396
2019-05-14T09:03:48.820Z,18880
2019-05-14T09:05:02.673Z,20768
2019-05-14T09:05:45.723Z,20448
2019-05-14T09:06:45.639Z,18144
2019-05-14T09:07:45.612Z,17088
2019-05-14T09:08:46.012Z,18880
2019-05-14T09:09:45.461Z,21472
2019-05-14T09:10:45.091Z,24960
2019-05-14T09:11:55.120Z,26496
2019-05-14T09:12:45.849Z,26624
2019-05-14T09:13:45.562Z,25696
2019-05-14T09:14:48.089Z,25280
2019-05-14T09:15:45.649Z,22400
2019-05-14T09:16:55.230Z,18016
2019-05-14T09:17:48.261Z,15936
2019-05-14T09:18:45.732Z,15488
2019-05-14T09:20:11.411Z,20064
2019-05-14T09:20:45.303Z,21792
2019-05-14T09:21:49.363Z,22976
2019-05-14T09:22:44.621Z,22848
2019-05-14T09:23:48.159Z,22368
2019-05-14T09:24:45.764Z,20896
2019-05-14T09:25:58.747Z,17664
2019-05-14T09:26:43.954Z,15288
2019-05-14T09:27:46.014Z,13184
2019-05-14T09:28:48.187Z,15124
2019-05-14T09:29:48.409Z,17888
2019-05-14T09:30:45.327Z,18240
2019-05-14T09:31:46.149Z,18784
2019-05-14T09:32:48.868Z,19296
2019-05-14T09:33:45.967Z,20224
2019-05-14T09:34:44.164Z,23776
2019-05-14T09:35:45.824Z,27456
2019-05-14T09:36:44.387Z,26208
2019-05-14T09:37:44.449Z,24448
2019-05-14T09:38:51.408Z,25120
2019-05-14T09:39:45.701Z,25760
2019-05-14T09:40:44.578Z,24704
2019-05-14T09:41:48.018Z,22048
2019-05-14T09:42:46.275Z,19808
2019-05-14T09:43:44.049Z,20416
2019-05-14T09:44:45.806Z,19552
2019-05-14T09:45:43.655Z,19264
2019-05-14T09:46:45.602Z,21952
2019-05-14T09:47:49.855Z,21632
2019-05-14T09:48:45.216Z,21056
2019-05-14T09:49:45.869Z,22176
2019-05-14T09:50:45.532Z,22400
2019-05-14T09:51:45.439Z,22880
2019-05-14T09:52:46.150Z,23744
2019-05-14T09:53:45.359Z,24832
2019-05-14T09:54:49.554Z,24224
2019-05-14T09:55:45.878Z,22976
2019-05-14T09:56:44.345Z,21120
2019-05-14T09:57:45.844Z,20448
2019-05-14T09:58:45.762Z,19488
2019-05-14T09:59:47.790Z,17056
2019-05-14T10:00:48.423Z,15536
2019-05-14T10:01:45.370Z,13676
2019-05-14T10:02:49.088Z,14228
2019-05-14T10:03:46.028Z,16896
2019-05-14T10:04:48.660Z,20896
2019-05-14T10:05:43.199Z,21984
2019-05-14T10:06:44.132Z,22368
2019-05-14T10:07:46.216Z,24320
2019-05-14T10:08:43.842Z,27456
2019-05-14T10:09:45.933Z,27776
2019-05-14T10:10:44.745Z,24800
2019-05-14T10:11:45.396Z,22592
2019-05-14T10:13:04.039Z,20640
2019-05-14T10:13:44.134Z,18144
2019-05-14T10:14:44.153Z,16704
2019-05-14T10:15:43.867Z,16896
2019-05-14T10:16:45.482Z,18048
2019-05-14T10:17:49.726Z,18400
2019-05-14T10:18:45.187Z,16736
2019-05-14T10:19:49.460Z,14772
2019-05-14T10:20:54.025Z,13208
2019-05-14T10:21:45.600Z,13824
2019-05-14T10:22:44.660Z,16832
2019-05-14T10:23:45.975Z,18848
2019-05-14T10:24:45.437Z,19744
2019-05-14T10:25:47.432Z,19392
2019-05-14T10:26:44.246Z,19904
2019-05-14T10:27:43.098Z,21248
2019-05-14T10:28:48.413Z,21280
2019-05-14T10:29:44.237Z,20992
2019-05-14T10:30:43.085Z,20736
2019-05-14T10:31:44.576Z,18976
2019-05-14T10:32:48.983Z,18368
2019-05-14T10:33:43.079Z,19200
2019-05-14T10:34:43.072Z,20864
2019-05-14T10:35:43.916Z,22080
2019-05-14T10:36:43.063Z,21856
2019-05-14T10:37:44.879Z,17824
2019-05-14T10:38:45.789Z,13160
2019-05-14T10:39:46.174Z,10464
2019-05-14T10:40:45.250Z,9892
2019-05-14T10:41:45.677Z,9816
2019-05-14T10:42:45.296Z,9796
2019-05-14T10:43:43.995Z,9836
2019-05-14T10:44:45.766Z,10152
2019-05-14T10:45:45.505Z,10376
2019-05-14T10:46:45.528Z,10632
2019-05-14T10:47:45.854Z,11528
2019-05-14T10:48:44.395Z,12548
2019-05-14T10:49:45.450Z,14200
2019-05-14T10:51:09.799Z,19584
2019-05-14T10:51:43.719Z,20928
2019-05-14T10:52:44.169Z,21792
2019-05-14T10:53:43.014Z,19872
2019-05-14T10:54:59.018Z,13708
2019-05-14T10:55:43.469Z,9772
2019-05-14T10:56:42.971Z,7216
2019-05-14T10:57:42.986Z,6376
2019-05-14T10:58:42.957Z,6252
2019-05-14T10:59:42.969Z,7048
2019-05-14T11:00:49.278Z,8864
2019-05-14T11:01:43.849Z,10784
2019-05-14T11:02:45.769Z,13000
2019-05-14T11:03:43.676Z,14428
2019-05-14T11:04:43.780Z,15248
2019-05-14T11:05:48.127Z,14848
2019-05-14T11:06:45.803Z,14200
2019-05-14T11:07:48.143Z,14256
2019-05-14T11:08:45.713Z,15184
2019-05-14T11:09:44.891Z,17504
2019-05-14T11:10:49.717Z,18496
2019-05-14T11:11:45.312Z,17344
2019-05-14T11:12:44.450Z,14504
2019-05-14T11:13:44.167Z,11580
2019-05-14T11:14:45.447Z,9904
2019-05-14T11:15:44.035Z,8524
2019-05-14T11:16:48.506Z,7028
2019-05-14T11:17:45.525Z,6040
2019-05-14T11:18:44.803Z,5812
2019-05-14T11:19:43.753Z,5860
2019-05-14T11:20:51.265Z,5960
2019-05-14T11:21:43.994Z,6212
2019-05-14T11:22:42.860Z,6728
2019-05-14T11:23:45.707Z,7532
2019-05-14T11:24:45.567Z,8216
2019-05-14T11:25:45.143Z,8900
2019-05-14T11:26:44.052Z,9776
2019-05-14T11:27:43.713Z,10836
2019-05-14T11:28:44.303Z,12288
2019-05-14T11:29:45.564Z,13864
2019-05-14T11:30:44.018Z,15196
2019-05-14T11:31:43.957Z,16544
2019-05-14T11:32:45.584Z,18112
2019-05-14T11:33:43.673Z,19712
2019-05-14T11:34:43.922Z,20288
2019-05-14T11:35:44.287Z,20288
2019-05-14T11:36:43.744Z,19264
2019-05-14T11:37:47.980Z,18208
2019-05-14T11:38:44.753Z,17088
2019-05-14T11:39:45.077Z,16352
2019-05-14T11:40:45.696Z,15272
2019-05-14T11:41:43.691Z,14720
2019-05-14T11:42:43.646Z,14208
2019-05-14T11:43:44.685Z,13828
2019-05-14T11:44:45.233Z,14060
2019-05-14T11:45:44.226Z,14764
2019-05-14T11:47:08.661Z,16160
2019-05-14T11:47:45.009Z,17024
2019-05-14T11:48:44.097Z,18368
2019-05-14T11:49:42.705Z,19168
2019-05-14T11:50:42.664Z,19552
2019-05-14T11:52:14.309Z,19584
2019-05-14T11:52:43.684Z,19520
2019-05-14T11:53:45.648Z,19264
2019-05-14T11:54:49.346Z,19680
2019-05-14T11:55:43.659Z,20288
2019-05-14T11:56:48.254Z,19008
2019-05-14T11:57:42.397Z,17856
2019-05-14T11:58:42.637Z,18624
2019-05-14T11:59:43.889Z,19360
2019-05-14T12:00:45.753Z,19680
2019-05-14T12:01:43.942Z,20256
2019-05-14T12:02:43.396Z,20928
2019-05-14T12:03:44.241Z,21600
2019-05-14T12:04:43.957Z,22048
2019-05-14T12:05:43.697Z,22112
2019-05-14T12:06:43.978Z,21728
2019-05-14T12:07:43.661Z,21856
2019-05-14T12:08:46.227Z,21280
2019-05-14T12:09:43.907Z,20096
2019-05-14T12:10:43.531Z,19008
2019-05-14T12:11:43.360Z,18304
2019-05-14T12:12:42.577Z,18048
2019-05-14T12:13:44.310Z,18656
2019-05-14T12:14:45.143Z,20192
2019-05-14T12:15:43.665Z,21600
2019-05-14T12:16:45.063Z,22240
2019-05-14T12:17:44.275Z,21984
2019-05-14T12:18:48.325Z,21120
2019-05-14T12:19:47.902Z,20288
2019-05-14T12:20:44.449Z,20224
2019-05-14T12:22:07.279Z,20096
2019-05-14T12:22:43.899Z,19712
2019-05-14T12:23:44.139Z,18976
2019-05-14T12:24:43.548Z,18304
2019-05-14T12:25:42.505Z,18112
2019-05-14T12:26:43.372Z,18848
2019-05-14T12:27:43.644Z,18752
2019-05-14T12:28:43.428Z,18560
2019-05-14T12:29:44.692Z,18336
2019-05-14T12:30:44.085Z,18720
2019-05-14T12:31:43.411Z,19264
2019-05-14T12:32:44.560Z,19840
2019-05-14T12:33:44.498Z,20192
2019-05-14T12:34:43.625Z,19872
2019-05-14T12:35:44.878Z,18432
2019-05-14T12:36:43.704Z,16640
2019-05-14T12:37:43.704Z,15616
2019-05-14T12:38:42.801Z,14848
2019-05-14T12:39:42.426Z,14464
2019-05-14T12:40:43.069Z,14768
2019-05-14T12:41:43.014Z,15208
2019-05-14T12:42:44.210Z,16096
2019-05-14T12:43:46.305Z,17152
2019-05-14T12:44:45.736Z,18880
2019-05-14T12:45:44.118Z,19040
2019-05-14T12:46:42.395Z,19136
2019-05-14T12:47:43.318Z,19648
2019-05-14T12:48:43.552Z,20576
2019-05-14T12:49:43.579Z,21344
2019-05-14T12:50:44.058Z,21344
2019-05-14T12:51:51.684Z,21280
2019-05-14T12:52:43.721Z,21632
2019-05-14T12:53:44.253Z,21312
2019-05-14T12:54:43.671Z,20480
2019-05-14T12:55:44.975Z,19776
2019-05-14T12:56:43.864Z,19296
2019-05-14T12:57:44.438Z,19584
2019-05-14T12:58:48.919Z,19136
2019-05-14T12:59:42.930Z,19040
2019-05-14T13:00:44.256Z,18272
2019-05-14T13:01:42.085Z,16960
2019-05-14T13:02:42.321Z,15224
2019-05-14T13:03:42.071Z,13428
2019-05-14T13:04:42.326Z,12668
2019-05-14T13:05:42.315Z,12912
2019-05-14T13:06:44.882Z,14168
2019-05-14T13:07:50.777Z,14892
2019-05-14T13:08:43.473Z,16800
2019-05-14T13:09:43.358Z,17376
2019-05-14T13:10:43.388Z,16576
2019-05-14T13:11:47.972Z,15404
2019-05-14T13:12:44.004Z,14476
2019-05-14T13:13:48.971Z,12320
2019-05-14T13:14:44.285Z,9904
2019-05-14T13:15:44.124Z,8368
2019-05-14T13:16:44.450Z,7012
2019-05-14T13:17:43.506Z,6156
2019-05-14T13:18:43.591Z,6024
2019-05-14T13:19:43.075Z,6376
2019-05-14T13:20:43.743Z,6892
2019-05-14T13:21:43.767Z,7744
2019-05-14T13:22:52.648Z,8980